createdAt,value
2023-02-12T00:02:18.044Z,31.65
2023-02-12T00:04:44.779Z,23.83
2023-02-12T00:07:11.427Z,28.85
2023-02-12T00:09:38.080Z,30.55
2023-02-12T00:12:04.760Z,32.78
2023-02-12T00:14:31.413Z,28.98
2023-02-12T00:16:58.057Z,32.78
2023-02-12T00:19:24.641Z,29.05
2023-02-12T00:21:51.247Z,28.52
2023-02-12T00:24:17.840Z,26.75
2023-02-12T00:26:44.427Z,28.00
2023-02-12T00:29:11.028Z,23.05
2023-02-12T00:31:37.825Z,29.55
2023-02-12T00:34:04.516Z,27.50
2023-02-12T00:36:31.425Z,30.10
2023-02-12T00:38:58.355Z,32.45
2023-02-12T00:41:25.061Z,31.15
2023-02-12T00:43:51.721Z,28.58
2023-02-12T00:46:18.437Z,26.40
2023-02-12T00:48:45.192Z,28.23
2023-02-12T00:51:12.352Z,29.15
2023-02-12T00:53:39.178Z,32.53
2023-02-12T00:56:06.050Z,32.85
2023-02-12T00:58:32.743Z,39.17
2023-02-12T01:00:59.438Z,27.90
2023-02-12T01:03:26.038Z,31.88
2023-02-12T01:05:53.639Z,29.77
2023-02-12T01:08:20.537Z,30.17
2023-02-12T01:10:55.605Z,29.80
2023-02-12T01:13:22.224Z,33.25
2023-02-12T01:15:48.931Z,27.55
2023-02-12T01:18:16.224Z,34.75
2023-02-12T01:20:42.833Z,27.63
2023-02-12T01:23:09.473Z,29.67
2023-02-12T01:25:37.594Z,32.33
2023-02-12T01:28:04.403Z,34.80
2023-02-12T01:30:30.981Z,28.52
2023-02-12T01:32:57.560Z,31.75
2023-02-12T01:35:24.129Z,29.30
2023-02-12T01:37:50.769Z,33.30
2023-02-12T01:40:17.403Z,31.52
2023-02-12T01:42:43.957Z,28.90
2023-02-12T01:47:50.752Z,27.08
2023-02-12T01:50:18.623Z,27.10
2023-02-12T01:52:47.631Z,26.80
2023-02-12T01:55:14.243Z,31.58
2023-02-12T01:57:42.701Z,32.30
2023-02-12T02:00:12.742Z,30.20
2023-02-12T02:02:39.396Z,31.05
2023-02-12T02:05:06.605Z,30.52
2023-02-12T02:07:33.191Z,28.60
2023-02-12T02:09:59.826Z,30.50
2023-02-12T02:12:46.486Z,32.67
2023-02-12T02:15:13.072Z,33.80
2023-02-12T02:20:48.762Z,34.75
2023-02-12T02:23:44.281Z,31.00
2023-02-12T02:31:58.309Z,32.67
2023-02-12T02:34:47.992Z,34.30
2023-02-12T02:37:26.448Z,29.85
2023-02-12T02:39:58.567Z,32.75
2023-02-12T02:42:33.110Z,31.42
2023-02-12T02:45:22.621Z,27.63
2023-02-12T02:47:53.253Z,27.65
2023-02-12T02:50:21.235Z,25.95
2023-02-12T02:52:53.916Z,26.85
2023-02-12T02:55:21.225Z,29.52
2023-02-12T02:57:52.219Z,31.58
2023-02-12T03:00:24.366Z,24.33
2023-02-12T03:02:55.188Z,24.02
2023-02-12T03:05:25.538Z,30.10
2023-02-12T03:07:56.167Z,27.42
2023-02-12T03:10:25.582Z,28.52
2023-02-12T03:12:55.941Z,24.35
2023-02-12T03:15:44.504Z,27.75
2023-02-12T03:18:16.051Z,23.85
2023-02-12T03:20:45.778Z,21.63
2023-02-12T03:23:15.230Z,25.48
2023-02-12T03:25:49.843Z,31.08
2023-02-12T03:28:29.226Z,26.35
2023-02-12T03:31:03.123Z,26.73
2023-02-12T03:33:50.920Z,28.80
2023-02-12T03:36:26.461Z,23.70
2023-02-12T03:38:54.289Z,24.80
2023-02-12T03:41:25.015Z,25.77
2023-02-12T03:43:54.706Z,24.38
2023-02-12T03:46:35.628Z,28.48
2023-02-12T03:49:10.359Z,27.95
2023-02-12T03:51:39.706Z,32.17
2023-02-12T03:54:07.532Z,25.23
2023-02-12T03:56:45.603Z,26.38
2023-02-12T03:59:12.240Z,30.83
2023-02-12T04:01:38.967Z,25.20
2023-02-12T04:04:07.009Z,30.85
2023-02-12T04:06:33.821Z,27.05
2023-02-12T04:09:15.498Z,27.13
2023-02-12T04:12:19.818Z,25.00
2023-02-12T04:15:01.783Z,28.95
2023-02-12T04:18:08.435Z,26.92
2023-02-12T04:20:46.901Z,34.17
2023-02-12T04:23:22.718Z,25.38
2023-02-12T04:29:14.491Z,30.40
2023-02-12T04:31:50.848Z,33.97
2023-02-12T04:34:31.126Z,30.05
2023-02-12T04:37:02.506Z,29.25
2023-02-12T04:39:30.445Z,27.05
2023-02-12T04:42:04.344Z,30.52
2023-02-12T04:44:33.741Z,27.85
2023-02-12T04:47:00.619Z,26.63
2023-02-12T04:49:27.390Z,33.97
2023-02-12T04:51:54.068Z,28.08
2023-02-12T04:54:21.232Z,32.13
2023-02-12T04:56:48.371Z,29.10
2023-02-12T04:59:15.351Z,35.08
2023-02-12T05:01:42.469Z,33.33
2023-02-12T05:04:09.976Z,30.00
2023-02-12T05:06:37.095Z,34.45
2023-02-12T05:09:04.259Z,35.90
2023-02-12T05:11:30.910Z,28.75
2023-02-12T05:13:57.502Z,25.77
2023-02-12T05:16:24.222Z,35.17
2023-02-12T05:18:50.871Z,30.40
2023-02-12T05:21:17.590Z,42.35
2023-02-12T05:23:44.313Z,25.65
2023-02-12T05:26:16.192Z,30.63
2023-02-12T05:28:42.837Z,29.00
2023-02-12T05:31:11.316Z,30.20
2023-02-12T05:33:38.012Z,34.22
2023-02-12T05:36:07.836Z,34.92
2023-02-12T05:38:34.550Z,30.48
2023-02-12T05:41:03.140Z,32.85
2023-02-12T05:43:29.767Z,33.08
2023-02-12T05:45:59.532Z,29.27
2023-02-12T05:48:26.670Z,30.13
2023-02-12T05:50:53.369Z,31.92
2023-02-12T05:53:20.252Z,33.85
2023-02-12T05:55:47.983Z,34.63
2023-02-12T05:58:16.145Z,34.00
2023-02-12T06:00:42.819Z,31.83
2023-02-12T06:03:09.460Z,39.55
2023-02-12T06:05:36.052Z,49.80
2023-02-12T06:08:02.677Z,48.55
2023-02-12T06:10:29.263Z,48.67
2023-02-12T06:12:55.903Z,43.35
2023-02-12T06:15:22.525Z,48.55
2023-02-12T06:17:49.122Z,49.38
2023-02-12T06:20:15.959Z,45.42
2023-02-12T06:22:42.567Z,48.75
2023-02-12T06:25:09.154Z,43.72
2023-02-12T06:27:35.760Z,50.97
2023-02-12T06:30:02.375Z,48.45
2023-02-12T06:32:28.996Z,47.95
2023-02-12T06:34:55.635Z,43.50
2023-02-12T06:37:22.213Z,46.42
2023-02-12T06:39:48.852Z,52.58
2023-02-12T06:42:15.479Z,51.53
2023-02-12T06:44:42.076Z,60.58
2023-02-12T06:47:08.737Z,51.47
2023-02-12T06:49:35.340Z,58.03
2023-02-12T06:52:03.402Z,59.13
2023-02-12T06:54:30.234Z,53.35
2023-02-12T06:56:56.808Z,67.65
2023-02-12T06:59:23.398Z,62.58
2023-02-12T07:01:50.080Z,64.03
2023-02-12T07:04:16.817Z,62.17
2023-02-12T07:06:43.438Z,58.22
2023-02-12T07:09:10.028Z,60.53
2023-02-12T07:11:38.323Z,60.70
2023-02-12T07:14:05.790Z,66.40
2023-02-12T07:16:32.490Z,66.25
2023-02-12T07:18:59.141Z,56.35
2023-02-12T07:21:25.693Z,60.10
2023-02-12T07:23:52.772Z,59.60
2023-02-12T07:26:20.254Z,56.70
2023-02-12T07:28:46.884Z,52.15
2023-02-12T07:31:15.235Z,56.00
2023-02-12T07:33:42.333Z,56.38
2023-02-12T07:36:11.229Z,54.78
2023-02-12T07:38:39.700Z,56.17
2023-02-12T07:41:12.378Z,48.05
2023-02-12T07:46:11.221Z,50.33
2023-02-12T07:48:38.089Z,54.42
2023-02-12T07:51:06.436Z,56.67
2023-02-12T07:53:33.209Z,53.58
2023-02-12T07:56:19.902Z,53.00
2023-02-12T07:58:47.606Z,47.13
2023-02-12T08:01:16.472Z,53.92
2023-02-12T08:03:43.262Z,46.75
2023-02-12T08:06:12.310Z,41.90
2023-02-12T08:08:38.955Z,41.13
2023-02-12T08:11:07.514Z,44.15
2023-02-12T08:13:35.168Z,40.85
2023-02-12T08:16:02.982Z,42.63
2023-02-12T08:18:31.416Z,42.05
2023-02-12T08:21:06.269Z,38.15
2023-02-12T08:23:34.165Z,40.10
2023-02-12T08:26:19.094Z,31.90
2023-02-12T08:28:47.363Z,37.15
2023-02-12T08:31:16.274Z,41.35
2023-02-12T08:33:44.693Z,41.42
2023-02-12T08:36:12.917Z,36.53
2023-02-12T08:38:39.691Z,40.90
2023-02-12T08:41:08.006Z,39.92
2023-02-12T08:43:35.215Z,35.38
2023-02-12T08:46:03.661Z,38.38
2023-02-12T08:48:30.432Z,45.85
2023-02-12T08:50:57.051Z,41.05
2023-02-12T08:53:23.874Z,39.13
2023-02-12T08:55:50.593Z,43.20
2023-02-12T08:58:17.204Z,40.72
2023-02-12T09:00:43.794Z,41.72
2023-02-12T09:03:10.448Z,38.80
2023-02-12T09:05:39.807Z,43.17
2023-02-12T09:08:06.595Z,45.55
2023-02-12T09:10:33.203Z,41.13
2023-02-12T09:12:59.828Z,44.97
2023-02-12T09:15:26.454Z,46.08
2023-02-12T09:17:53.061Z,38.47
2023-02-12T09:20:19.818Z,42.83
2023-02-12T09:22:46.397Z,37.95
2023-02-12T09:25:13.003Z,56.63
2023-02-12T09:27:39.622Z,46.50
2023-02-12T09:30:06.799Z,44.17
2023-02-12T09:32:33.483Z,39.72
2023-02-12T09:35:00.115Z,36.92
2023-02-12T09:37:26.788Z,37.67
2023-02-12T09:39:53.418Z,31.52
2023-02-12T09:42:33.608Z,32.05
2023-02-12T09:45:20.559Z,30.05
2023-02-12T09:47:53.008Z,25.98
2023-02-12T09:53:23.996Z,19.52
2023-02-12T09:55:50.752Z,27.63
2023-02-12T09:58:24.373Z,21.48
2023-02-12T10:00:50.980Z,11.95
2023-02-12T10:03:17.656Z,7.25
2023-02-12T10:05:49.429Z,11.98
2023-02-12T10:08:48.609Z,7.67
2023-02-12T10:11:39.427Z,17.48
2023-02-12T10:14:45.914Z,7.18
2023-02-12T10:17:29.411Z,7.80
2023-02-12T10:20:35.882Z,21.92
2023-02-12T10:23:25.261Z,10.00
2023-02-12T10:25:54.687Z,7.63
2023-02-12T10:28:26.887Z,12.20
2023-02-12T10:30:56.840Z,11.00
2023-02-12T10:33:36.478Z,7.68
2023-02-12T10:36:12.079Z,5.25
2023-02-12T10:38:39.971Z,6.85
2023-02-12T10:41:06.637Z,5.38
2023-02-12T10:43:33.326Z,5.45
2023-02-12T10:45:59.906Z,4.78
2023-02-12T10:48:37.010Z,7.72
2023-02-12T10:57:20.168Z,8.65
2023-02-12T10:59:47.604Z,9.30
2023-02-12T11:02:26.687Z,7.57
2023-02-12T11:04:54.415Z,19.27
2023-02-12T11:07:21.503Z,11.98
2023-02-12T11:09:49.563Z,15.48
2023-02-12T11:12:36.135Z,13.25
2023-02-12T11:15:08.081Z,13.95
2023-02-12T11:17:38.327Z,5.30
2023-02-12T11:20:23.069Z,9.65
2023-02-12T11:22:55.647Z,11.52
2023-02-12T11:25:22.864Z,14.73
2023-02-12T11:28:14.404Z,4.57
2023-02-12T11:30:50.966Z,8.68
2023-02-12T11:33:30.490Z,12.50
2023-02-12T11:35:59.340Z,13.32
2023-02-12T11:38:28.836Z,6.10
2023-02-12T11:40:58.423Z,3.42
2023-02-12T11:43:25.346Z,3.70
2023-02-12T11:45:52.677Z,2.85
2023-02-12T11:51:00.992Z,2.72
2023-02-12T11:53:33.361Z,3.28
2023-02-12T11:56:02.546Z,5.95
2023-02-12T11:58:29.539Z,11.60
2023-02-12T12:01:05.773Z,3.60
2023-02-12T12:04:12.235Z,1.90
2023-02-12T12:06:44.081Z,3.50
2023-02-12T12:09:15.896Z,7.40
2023-02-12T12:11:49.647Z,18.07
2023-02-12T12:14:57.167Z,4.32
2023-02-12T12:17:45.884Z,2.90
2023-02-12T12:20:15.913Z,2.63
2023-02-12T12:23:07.854Z,3.72
2023-02-12T12:25:45.209Z,5.75
2023-02-12T12:28:51.683Z,8.30
2023-02-12T12:31:37.123Z,9.35
2023-02-12T12:34:12.005Z,5.28
2023-02-12T12:36:46.706Z,7.85
2023-02-12T12:39:26.875Z,2.65
2023-02-12T12:42:33.366Z,3.50
2023-02-12T12:53:47.008Z,3.80
2023-02-12T12:56:42.458Z,6.93
2023-02-12T12:59:34.514Z,3.92
2023-02-12T13:02:41.176Z,6.75
2023-02-12T13:05:23.999Z,5.18
2023-02-12T13:10:52.430Z,7.20
2023-02-12T13:13:41.852Z,8.45
2023-02-12T13:16:16.142Z,8.57
2023-02-12T13:19:05.332Z,6.15
2023-02-12T13:21:46.770Z,11.15
2023-02-12T13:24:37.603Z,9.80
2023-02-12T13:27:07.606Z,9.25
2023-02-12T13:29:40.438Z,8.57
2023-02-12T13:32:16.765Z,11.45
2023-02-12T13:34:43.427Z,18.85
2023-02-12T13:37:35.320Z,9.80
2023-02-12T13:40:04.421Z,7.60
2023-02-12T13:45:40.121Z,7.43
2023-02-12T13:48:20.364Z,6.80
2023-02-12T13:51:09.826Z,11.18
2023-02-12T13:54:03.067Z,11.77
2023-02-12T13:56:41.492Z,9.98
2023-02-12T14:02:28.366Z,8.73
2023-02-12T14:04:56.579Z,8.15
2023-02-12T14:07:23.214Z,9.95
2023-02-12T14:09:55.016Z,11.15
2023-02-12T14:12:28.677Z,10.73
2023-02-12T14:15:08.056Z,11.45
2023-02-12T14:20:31.972Z,10.43
2023-02-12T14:23:26.727Z,14.13
2023-02-12T14:25:59.153Z,9.95
2023-02-12T14:28:42.123Z,7.72
2023-02-12T14:34:16.492Z,10.20
2023-02-12T14:36:45.018Z,9.70
2023-02-12T14:39:28.218Z,15.20
2023-02-12T14:42:16.912Z,12.45
2023-02-12T14:50:16.744Z,16.60
2023-02-12T14:52:44.845Z,18.85
2023-02-12T14:55:20.295Z,16.40
2023-02-12T14:57:47.037Z,25.70
2023-02-12T15:00:29.185Z,13.88
2023-02-12T15:03:02.677Z,14.27
2023-02-12T15:05:41.919Z,14.98
2023-02-12T15:08:48.451Z,14.95
2023-02-12T15:11:39.348Z,15.23
2023-02-12T15:14:16.969Z,11.35
2023-02-12T15:17:20.216Z,14.45
2023-02-12T15:22:25.843Z,15.77
2023-02-12T15:24:52.588Z,13.57
2023-02-12T15:27:19.585Z,10.93
2023-02-12T15:29:49.405Z,10.45
2023-02-12T15:32:25.046Z,15.98
2023-02-12T15:34:52.050Z,13.25
2023-02-12T15:37:29.336Z,13.20
2023-02-12T15:39:59.233Z,13.77
2023-02-12T15:42:32.630Z,13.60
2023-02-12T15:45:18.637Z,20.13
2023-02-12T15:47:45.940Z,17.30
2023-02-12T15:50:13.592Z,17.45
2023-02-12T15:52:41.198Z,18.58
2023-02-12T15:55:14.781Z,17.92
2023-02-12T15:57:41.548Z,14.93
2023-02-12T16:00:10.186Z,18.30
2023-02-12T16:02:36.886Z,17.88
2023-02-12T16:05:04.564Z,16.75
2023-02-12T16:07:34.648Z,15.63
2023-02-12T16:10:01.254Z,17.30
2023-02-12T16:12:30.391Z,20.70
2023-02-12T16:14:59.958Z,19.13
2023-02-12T16:17:29.103Z,22.02
2023-02-12T16:19:59.658Z,21.65
2023-02-12T16:22:29.286Z,23.73
2023-02-12T16:24:56.915Z,21.83
2023-02-12T16:27:26.453Z,21.20
2023-02-12T16:29:55.437Z,24.02
2023-02-12T16:32:39.078Z,21.52
2023-02-12T16:37:49.642Z,25.08
2023-02-12T16:42:57.769Z,29.75
2023-02-12T16:50:49.270Z,25.67
2023-02-12T16:56:21.958Z,28.45
2023-02-12T16:58:50.644Z,33.13
2023-02-12T17:01:19.785Z,28.95
2023-02-12T17:03:47.709Z,23.63
2023-02-12T17:06:15.963Z,25.85
2023-02-12T17:08:42.794Z,28.70
2023-02-12T17:11:10.927Z,25.02
2023-02-12T17:13:37.743Z,28.25
2023-02-12T17:16:05.004Z,27.27
2023-02-12T17:18:32.858Z,23.83
2023-02-12T17:21:03.605Z,27.98
2023-02-12T17:23:30.442Z,24.73
2023-02-12T17:25:57.562Z,32.10
2023-02-12T17:28:25.294Z,32.15
2023-02-12T17:30:52.962Z,29.20
2023-02-12T17:33:20.162Z,25.95
2023-02-12T17:35:46.859Z,29.45
2023-02-12T17:38:13.545Z,28.38
2023-02-12T17:40:40.160Z,38.17
2023-02-12T17:43:06.894Z,27.58
2023-02-12T17:45:33.666Z,30.60
2023-02-12T17:48:00.312Z,31.58
2023-02-12T17:50:27.020Z,30.38
2023-02-12T17:52:53.697Z,32.85
2023-02-12T17:55:20.409Z,36.38
2023-02-12T17:57:47.213Z,30.80
2023-02-12T18:00:14.428Z,36.08
2023-02-12T18:02:41.061Z,32.58
2023-02-12T18:05:08.594Z,33.03
2023-02-12T18:07:36.564Z,30.40
2023-02-12T18:10:05.179Z,37.03
2023-02-12T18:12:32.653Z,34.80
2023-02-12T18:15:00.135Z,32.83
2023-02-12T18:17:26.904Z,35.33
2023-02-12T18:19:53.878Z,27.90
2023-02-12T18:22:20.722Z,35.70
2023-02-12T18:24:47.396Z,34.65
2023-02-12T18:27:14.357Z,36.05
2023-02-12T18:29:41.356Z,40.08
2023-02-12T18:32:08.049Z,39.50
2023-02-12T18:34:34.941Z,30.77
2023-02-12T18:37:01.644Z,40.05
2023-02-12T18:39:29.074Z,44.25
2023-02-12T18:41:55.816Z,40.10
2023-02-12T18:44:22.769Z,40.55
2023-02-12T18:46:49.468Z,36.13
2023-02-12T18:49:16.606Z,34.47
2023-02-12T18:51:43.347Z,38.47
2023-02-12T18:54:12.176Z,38.63
2023-02-12T18:56:41.176Z,43.90
2023-02-12T18:59:08.361Z,38.25
2023-02-12T19:01:35.415Z,49.90
2023-02-12T19:04:03.362Z,41.88
2023-02-12T19:06:30.386Z,46.05
2023-02-12T19:08:57.809Z,41.45
2023-02-12T19:11:24.633Z,47.03
2023-02-12T19:13:51.519Z,43.83
2023-02-12T19:16:19.050Z,38.17
2023-02-12T19:18:48.656Z,38.35
2023-02-12T19:21:16.417Z,46.63
2023-02-12T19:23:43.414Z,40.92
2023-02-12T19:26:12.594Z,37.00
2023-02-12T19:28:39.298Z,39.25
2023-02-12T19:31:16.843Z,39.95
2023-02-12T19:33:43.854Z,43.75
2023-02-12T19:36:11.857Z,39.75
2023-02-12T19:38:38.643Z,42.92
2023-02-12T19:41:06.431Z,45.90
2023-02-12T19:43:33.106Z,43.58
2023-02-12T19:46:02.565Z,38.67
2023-02-12T19:48:29.719Z,41.40
2023-02-12T19:50:56.882Z,37.75
2023-02-12T19:53:23.778Z,39.08
2023-02-12T19:55:50.451Z,38.28
2023-02-12T19:58:17.039Z,37.85
2023-02-12T20:00:44.158Z,34.70
2023-02-12T20:03:10.774Z,37.40
2023-02-12T20:05:44.463Z,36.35
2023-02-12T20:08:11.052Z,49.53
2023-02-12T20:10:40.222Z,36.88
2023-02-12T20:13:06.976Z,39.35
2023-02-12T20:15:36.615Z,35.35
2023-02-12T20:18:04.822Z,33.33
2023-02-12T20:20:31.830Z,37.00
2023-02-12T20:22:58.509Z,38.53
2023-02-12T20:25:25.397Z,37.15
2023-02-12T20:27:52.373Z,40.63
2023-02-12T20:30:19.248Z,38.28
2023-02-12T20:32:46.172Z,40.58
2023-02-12T20:35:13.429Z,31.45
2023-02-12T20:37:40.197Z,43.60
2023-02-12T20:40:08.234Z,37.83
2023-02-12T20:42:34.842Z,35.20
2023-02-12T20:45:01.435Z,40.67
2023-02-12T20:47:29.119Z,40.22
2023-02-12T20:49:55.900Z,31.50
2023-02-12T20:52:23.289Z,30.38
2023-02-12T20:54:50.269Z,25.58
2023-02-12T20:57:17.356Z,24.08
2023-02-12T20:59:43.941Z,27.33
2023-02-12T21:02:11.370Z,29.08
2023-02-12T21:04:38.002Z,27.48
2023-02-12T21:07:04.634Z,30.40
2023-02-12T21:09:31.343Z,26.00
2023-02-12T21:11:59.056Z,33.30
2023-02-12T21:14:25.867Z,27.20
2023-02-12T21:16:53.897Z,30.13
2023-02-12T21:19:20.645Z,30.17
2023-02-12T21:21:47.739Z,25.73
2023-02-12T21:24:17.128Z,28.73
2023-02-12T21:26:43.810Z,27.98
2023-02-12T21:29:10.684Z,31.35
2023-02-12T21:31:39.014Z,29.63
2023-02-12T21:34:06.581Z,29.13
2023-02-12T21:36:35.711Z,26.38
2023-02-12T21:39:02.644Z,24.75
2023-02-12T21:41:30.727Z,23.55
2023-02-12T21:43:59.302Z,25.13
2023-02-12T21:46:26.163Z,27.17
2023-02-12T21:48:53.021Z,29.70
2023-02-12T21:51:22.808Z,28.35
2023-02-12T21:53:51.243Z,25.00
2023-02-12T21:56:18.026Z,21.73
2023-02-12T21:58:44.644Z,27.45
2023-02-12T22:01:13.269Z,25.02
2023-02-12T22:03:39.840Z,27.83
2023-02-12T22:06:07.434Z,24.88
2023-02-12T22:08:34.489Z,26.88
2023-02-12T22:11:03.680Z,35.33
2023-02-12T22:13:30.827Z,33.05
2023-02-12T22:15:58.094Z,40.03
2023-02-12T22:18:24.743Z,30.98
2023-02-12T22:20:53.083Z,35.17
2023-02-12T22:23:19.684Z,30.48
2023-02-12T22:25:46.427Z,39.83
2023-02-12T22:28:13.272Z,28.38
2023-02-12T22:30:39.896Z,29.70
2023-02-12T22:33:06.553Z,34.28
2023-02-12T22:35:33.424Z,26.15
2023-02-12T22:38:00.159Z,28.30
2023-02-12T22:40:26.746Z,29.55
2023-02-12T22:42:53.580Z,30.02
2023-02-12T22:45:20.217Z,29.58
2023-02-12T22:47:46.909Z,32.78
2023-02-12T22:50:13.526Z,26.20
2023-02-12T22:52:40.229Z,36.47
2023-02-12T22:55:06.838Z,24.52
2023-02-12T22:57:33.482Z,26.00
2023-02-12T23:00:00.190Z,21.60
2023-02-12T23:02:26.874Z,25.65
2023-02-12T23:04:53.477Z,17.88
2023-02-12T23:07:20.100Z,24.73
2023-02-12T23:09:46.765Z,23.63
2023-02-12T23:12:13.394Z,18.23
2023-02-12T23:14:40.118Z,21.45
2023-02-12T23:17:06.739Z,18.75
2023-02-12T23:19:33.364Z,18.63
2023-02-12T23:22:00.024Z,22.90
2023-02-12T23:24:26.670Z,22.95
2023-02-12T23:26:53.687Z,16.30
2023-02-12T23:29:20.449Z,19.38
2023-02-12T23:31:47.247Z,23.02
2023-02-12T23:34:14.092Z,17.75
2023-02-12T23:36:40.867Z,24.15
2023-02-12T23:39:09.422Z,21.52
2023-02-12T23:41:36.207Z,21.50
2023-02-12T23:44:03.029Z,19.73
2023-02-12T23:46:32.212Z,22.45
2023-02-12T23:48:59.183Z,19.55
2023-02-12T23:51:25.788Z,23.08
2023-02-12T23:53:52.475Z,20.65
2023-02-12T23:56:19.269Z,23.52
2023-02-12T23:58:45.909Z,20.40
